Time;durP1;ratioP1;P1;durP2;ratioP2;P2;SDS_P1;SDS_P2;PMS_P1;PMS_P2;Temp;Humidity;BMP_temperature;BMP_pressure;BME280_temperature;BME280_humidity;BME280_pressure;Samples;Min_cycle;Max_cycle;Signal;HPM_P1;HPM_P2
2022/04/06 00:00:01;;;;;;;;;;;;;;;10.12;62.61;92129.72;2058360;69;20046;-69
2022/04/06 00:02:29;;;;;;;;;;;;;;;9.92;63.81;92130.09;2058024;69;20147;-69
2022/04/06 00:04:54;;;;;;;;;;;;;;;9.84;63.76;92121.22;2057975;69;20474;-69
2022/04/06 00:07:20;;;;;;;;;;;;;;;9.83;61.73;92116.94;2058175;69;20504;-69
2022/04/06 00:09:45;;;;;;;;;;;;;;;9.75;63.99;92112.97;2057929;69;20494;-69
2022/04/06 00:12:11;;;;;;;;;;;;;;;9.75;63.22;92119.31;2058280;69;20049;-69
2022/04/06 00:14:36;;;;;;;;;;;;;;;9.82;64.07;92123.19;2057634;69;20050;-69
2022/04/06 00:17:05;;;;;;;;;;;;;;;9.82;63.16;92117.59;2058201;69;20082;-69
2022/04/06 00:19:34;;;;;;;;;;;;;;;9.83;62.88;92116.22;2058093;69;20077;-70
2022/04/06 00:22:00;;;;;;;;;;;;;;;9.95;62.17;92121.78;2057969;69;20050;-69
2022/04/06 00:24:26;;;;;;;;;;;;;;;9.88;63.26;92121.44;2057990;69;20062;-69
2022/04/06 00:26:53;;;;;;;;;;;;;;;9.80;61.67;92123.06;2058265;69;20399;-70
2022/04/06 00:29:18;;;;;;;;;;;;;;;9.61;63.38;92118.53;2058021;69;20120;-70
2022/04/06 00:31:44;;;;;;;;;;;;;;;9.71;63.17;92118.38;2058104;69;20061;-70
2022/04/06 00:34:09;;;;;;;;;;;;;;;9.61;63.70;92116.47;2058175;69;20418;-69
2022/04/06 00:36:35;;;;;;;;;;;;;;;9.25;67.13;92112.38;2057946;69;20066;-70
2022/04/06 00:39:01;;;;;;;;;;;;;;;9.46;65.25;92107.88;2057984;69;20074;-69
2022/04/06 00:41:26;;;;;;;;;;;;;;;9.41;64.99;92109.75;2058484;69;20509;-68
2022/04/06 00:44:08;;;;;;;;;;;;;;;9.61;64.61;92104.50;2058467;69;20046;-69
2022/04/06 00:46:33;;;;;;;;;;;;;;;9.57;64.87;92109.88;2058472;69;20124;-70
2022/04/06 00:48:59;;;;;;;;;;;;;;;9.58;63.96;92100.84;2058250;69;20081;-70
2022/04/06 00:51:24;;;;;;;;;;;;;;;9.67;60.58;92096.41;2058196;69;20057;-70
2022/04/06 00:53:50;;;;;;;;;;;;;;;9.56;63.81;92095.13;2057453;69;20909;-70
2022/04/06 00:56:16;;;;;;;;;;;;;;;9.63;62.92;92084.94;2058345;69;20054;-70
2022/04/06 00:58:42;;;;;;;;;;;;;;;9.50;63.89;92083.56;2057646;69;20072;-72
2022/04/06 01:01:07;;;;;;;;;;;;;;;9.40;64.85;92086.53;2058223;69;20046;-72
2022/04/06 01:03:33;;;;;;;;;;;;;;;9.44;64.47;92083.22;2058146;69;20065;-70
2022/04/06 01:05:58;;;;;;;;;;;;;;;9.39;64.46;92084.34;2058287;69;20131;-71
2022/04/06 01:08:24;;;;;;;;;;;;;;;9.26;64.89;92082.94;2057503;69;20054;-71
2022/04/06 01:10:49;;;;;;;;;;;;;;;9.24;64.36;92096.88;2058249;69;20498;-70
2022/04/06 01:13:14;;;;;;;;;;;;;;;9.21;63.85;92092.50;2054922;69;20053;-71
2022/04/06 01:15:40;;;;;;;;;;;;;;;8.98;65.17;92082.09;2058079;69;20472;-70
2022/04/06 01:18:08;;;;;;;;;;;;;;;8.99;64.79;92088.44;2058170;69;20057;-71
2022/04/06 01:20:33;;;;;;;;;;;;;;;8.99;63.91;92089.16;2058113;69;20200;-71
2022/04/06 01:22:58;;;;;;;;;;;;;;;8.78;65.07;92086.53;2058001;69;20053;-71
2022/04/06 01:25:26;;;;;;;;;;;;;;;8.80;65.00;92084.59;2058122;69;20435;-71
2022/04/06 01:27:52;;;;;;;;;;;;;;;8.85;65.18;92085.56;2058140;69;20130;-70
2022/04/06 01:30:17;;;;;;;;;;;;;;;8.73;66.38;92082.78;2058193;69;20422;-71
2022/04/06 01:32:42;;;;;;;;;;;;;;;8.75;64.73;92082.16;2058117;69;20058;-70
2022/04/06 01:35:08;;;;;;;;;;;;;;;8.57;65.37;92085.38;2058193;69;20224;-72
2022/04/06 01:37:34;;;;;;;;;;;;;;;8.37;65.92;92082.09;2058236;69;20046;-70
2022/04/06 01:40:00;;;;;;;;;;;;;;;8.55;63.88;92082.44;2057502;69;20058;-70
2022/04/06 01:42:25;;;;;;;;;;;;;;;8.34;63.57;92082.59;2058203;69;20056;-71
2022/04/06 01:44:51;;;;;;;;;;;;;;;8.32;64.30;92091.59;2058181;69;20169;-72
2022/04/06 01:47:17;;;;;;;;;;;;;;;8.27;64.05;92083.56;2058187;69;20066;-71
2022/04/06 01:52:28;;;;;;;;;;;;;;;8.12;65.21;92085.53;2058069;69;20127;-71
2022/04/06 01:55:00;;;;;;;;;;;;;;;7.90;65.89;92084.19;2058074;69;20088;-71
2022/04/06 01:57:26;;;;;;;;;;;;;;;8.22;63.61;92082.59;2058211;69;20618;-71
2022/04/06 01:59:52;;;;;;;;;;;;;;;8.10;64.28;92081.88;2058252;69;20046;-71
2022/04/06 02:02:19;;;;;;;;;;;;;;;7.92;64.02;92077.97;2057717;69;20080;-71
2022/04/06 02:04:44;;;;;;;;;;;;;;;8.09;63.54;92078.34;2058280;69;20478;-71
2022/04/06 02:07:10;;;;;;;;;;;;;;;8.07;65.36;92069.09;2057669;69;20065;-72
2022/04/06 02:09:36;;;;;;;;;;;;;;;8.05;64.65;92078.09;2058117;69;20053;-72
2022/04/06 02:12:02;;;;;;;;;;;;;;;8.00;65.24;92076.38;2057564;69;20049;-70
2022/04/06 02:14:28;;;;;;;;;;;;;;;7.85;64.83;92079.69;2058226;69;20058;-70
2022/04/06 02:16:53;;;;;;;;;;;;;;;7.90;65.16;92079.31;2058365;69;20046;-67
2022/04/06 02:19:19;;;;;;;;;;;;;;;7.77;64.68;92076.38;2058255;69;20116;-70
2022/04/06 02:21:44;;;;;;;;;;;;;;;7.92;63.90;92073.09;2058190;69;20054;-70
2022/04/06 02:24:10;;;;;;;;;;;;;;;7.93;65.29;92079.44;2058269;69;20534;-70
2022/04/06 02:26:35;;;;;;;;;;;;;;;7.73;65.93;92079.66;2058323;69;20057;-70
2022/04/06 02:29:01;;;;;;;;;;;;;;;7.90;66.49;92078.59;2058351;69;20185;-70
2022/04/06 02:31:27;;;;;;;;;;;;;;;7.86;66.16;92078.34;2058391;69;20049;-70
2022/04/06 02:33:52;;;;;;;;;;;;;;;7.85;66.84;92077.59;2058222;69;20494;-70
2022/04/06 02:36:18;;;;;;;;;;;;;;;7.75;67.02;92074.19;2058282;69;20052;-70
2022/04/06 02:38:44;;;;;;;;;;;;;;;8.10;65.60;92071.38;2058195;69;20080;-70
2022/04/06 02:41:09;;;;;;;;;;;;;;;8.04;65.67;92073.81;2058359;69;20478;-71
2022/04/06 02:43:35;;;;;;;;;;;;;;;8.16;66.01;92071.03;2058296;69;20049;-70
2022/04/06 02:46:01;;;;;;;;;;;;;;;8.17;65.88;92072.47;2058305;69;20074;-70
2022/04/06 02:48:26;;;;;;;;;;;;;;;8.09;65.92;92075.53;2058222;69;20479;-70
2022/04/06 02:50:52;;;;;;;;;;;;;;;8.26;64.71;92066.00;2058546;69;20053;-70
2022/04/06 02:53:17;;;;;;;;;;;;;;;8.23;65.60;92069.31;2058230;69;20187;-70
2022/04/06 02:55:43;;;;;;;;;;;;;;;8.15;65.53;92072.34;2058255;69;20422;-70
2022/04/06 02:58:08;;;;;;;;;;;;;;;8.26;65.15;92066.00;2058471;69;20181;-70
2022/04/06 03:00:33;;;;;;;;;;;;;;;8.27;65.77;92069.53;2058392;69;20053;-69
2022/04/06 03:02:59;;;;;;;;;;;;;;;8.33;64.96;92067.09;2058329;69;20067;-70
2022/04/06 03:05:27;;;;;;;;;;;;;;;8.44;63.60;92063.56;2058661;69;20154;-69
2022/04/06 03:07:53;;;;;;;;;;;;;;;8.66;60.84;92061.34;2058203;69;20490;-69
2022/04/06 03:10:18;;;;;;;;;;;;;;;8.63;63.49;92054.88;2058279;69;20053;-70
2022/04/06 03:12:44;;;;;;;;;;;;;;;8.55;64.89;92057.19;2058438;69;20482;-70
2022/04/06 03:15:09;;;;;;;;;;;;;;;8.58;64.53;92058.78;2058392;69;20148;-70
2022/04/06 03:17:35;;;;;;;;;;;;;;;8.70;61.91;92053.13;2058304;69;20394;-69
2022/04/06 03:20:02;;;;;;;;;;;;;;;8.68;63.97;92050.22;2058165;69;20069;-69
2022/04/06 03:22:28;;;;;;;;;;;;;;;8.74;63.32;92047.75;2058198;69;20041;-68
2022/04/06 03:24:54;;;;;;;;;;;;;;;8.74;64.26;92044.94;2057959;69;20116;-67
2022/04/06 03:27:19;;;;;;;;;;;;;;;8.80;62.54;92048.09;2058324;69;20054;-68
2022/04/06 03:29:45;;;;;;;;;;;;;;;8.81;64.67;92043.94;2058281;69;20054;-68
2022/04/06 03:32:10;;;;;;;;;;;;;;;8.86;64.46;92040.03;2058312;69;20088;-70
2022/04/06 03:34:36;;;;;;;;;;;;;;;8.81;65.04;92041.16;2058406;69;20046;-71
2022/04/06 03:37:02;;;;;;;;;;;;;;;8.85;64.86;92041.38;2058121;69;20050;-71
2022/04/06 03:39:27;;;;;;;;;;;;;;;8.73;65.69;92046.28;2058314;69;20057;-69
2022/04/06 03:41:53;;;;;;;;;;;;;;;8.84;64.51;92047.59;2058535;69;20497;-69
2022/04/06 03:44:18;;;;;;;;;;;;;;;8.67;65.51;92048.03;2058502;69;20050;-69
2022/04/06 03:46:44;;;;;;;;;;;;;;;8.54;66.43;92035.38;2058485;69;20490;-71
2022/04/06 03:49:09;;;;;;;;;;;;;;;8.76;64.33;92039.47;2058519;69;20050;-70
2022/04/06 03:51:35;;;;;;;;;;;;;;;8.58;65.55;92038.41;2058480;69;20053;-69
2022/04/06 03:54:01;;;;;;;;;;;;;;;8.40;66.56;92035.28;2058397;69;20083;-70
2022/04/06 03:56:26;;;;;;;;;;;;;;;8.46;66.59;92034.91;2058560;69;20070;-69
2022/04/06 03:58:52;;;;;;;;;;;;;;;8.71;65.59;92031.44;2058514;69;20056;-70
2022/04/06 04:01:17;;;;;;;;;;;;;;;8.53;66.64;92040.25;2057918;69;20093;-70
2022/04/06 04:03:43;;;;;;;;;;;;;;;8.60;66.11;92036.44;2058455;69;20050;-69
2022/04/06 04:06:08;;;;;;;;;;;;;;;8.74;66.09;92033.00;2058647;69;20050;-69
2022/04/06 04:08:34;;;;;;;;;;;;;;;8.86;61.32;92040.03;2058360;69;20054;-70
2022/04/06 04:10:59;;;;;;;;;;;;;;;8.64;63.87;92031.06;2058435;69;20049;-69
2022/04/06 04:13:25;;;;;;;;;;;;;;;8.31;66.14;92036.13;2058408;69;20054;-70
2022/04/06 04:15:50;;;;;;;;;;;;;;;8.30;65.94;92038.22;2058382;69;20074;-70
2022/04/06 04:18:16;;;;;;;;;;;;;;;8.25;65.88;92033.72;2058587;69;20482;-70
2022/04/06 04:20:45;;;;;;;;;;;;;;;8.33;64.38;92042.56;2058532;69;20174;-69
2022/04/06 04:23:10;;;;;;;;;;;;;;;8.26;65.40;92040.78;2058440;69;20034;-70
2022/04/06 04:25:36;;;;;;;;;;;;;;;8.55;63.58;92034.75;2058421;69;20052;-70
2022/04/06 04:28:01;;;;;;;;;;;;;;;8.15;65.71;92033.84;2058426;69;20053;-70
2022/04/06 04:30:27;;;;;;;;;;;;;;;8.22;64.07;92026.53;2058527;69;20098;-70
2022/04/06 04:32:52;;;;;;;;;;;;;;;8.00;64.74;92028.00;2058529;69;20058;-70
2022/04/06 04:35:18;;;;;;;;;;;;;;;8.09;64.55;92029.94;2057908;69;20061;-70
2022/04/06 04:37:43;;;;;;;;;;;;;;;8.15;64.21;92031.06;2058436;69;20537;-70
2022/04/06 04:40:09;;;;;;;;;;;;;;;8.06;64.72;92037.53;2057912;69;20158;-70
2022/04/06 04:42:34;;;;;;;;;;;;;;;7.90;65.48;92036.56;2058379;69;20056;-70
2022/04/06 04:45:00;;;;;;;;;;;;;;;8.05;64.69;92027.63;2058391;69;20145;-70
2022/04/06 04:47:25;;;;;;;;;;;;;;;7.94;65.25;92027.66;2058361;69;20061;-71
2022/04/06 04:49:51;;;;;;;;;;;;;;;8.18;63.03;92029.09;2058332;69;20073;-70
2022/04/06 04:52:16;;;;;;;;;;;;;;;7.94;64.91;92025.59;2058379;69;20085;-71
2022/04/06 04:54:42;;;;;;;;;;;;;;;7.99;64.24;92018.88;2058303;69;20514;-70
2022/04/06 04:57:07;;;;;;;;;;;;;;;8.07;64.60;92022.16;2058329;69;20046;-72
2022/04/06 04:59:32;;;;;;;;;;;;;;;8.22;64.08;92023.00;2058087;69;20050;-70
2022/04/06 05:01:58;;;;;;;;;;;;;;;8.23;64.22;92025.16;2058369;69;20113;-71
2022/04/06 05:04:23;;;;;;;;;;;;;;;8.25;64.28;92035.78;2058232;69;20065;-70
2022/04/06 05:06:49;;;;;;;;;;;;;;;8.30;62.49;92031.88;2058567;69;20061;-71
2022/04/06 05:09:14;;;;;;;;;;;;;;;8.23;62.83;92036.38;2058208;69;20057;-72
2022/04/06 05:11:40;;;;;;;;;;;;;;;8.29;63.67;92033.19;2058388;69;20050;-70
2022/04/06 05:14:05;;;;;;;;;;;;;;;8.25;62.03;92039.31;2058134;69;20056;-71
2022/04/06 05:16:31;;;;;;;;;;;;;;;8.14;62.63;92031.66;2058349;69;20062;-72
2022/04/06 05:18:58;;;;;;;;;;;;;;;7.32;67.13;92029.56;2058377;69;20062;-71
2022/04/06 05:21:23;;;;;;;;;;;;;;;7.51;66.05;92028.59;2058271;69;20155;-71
2022/04/06 05:23:49;;;;;;;;;;;;;;;7.69;65.22;92017.78;2058204;69;20050;-71
2022/04/06 05:26:14;;;;;;;;;;;;;;;7.84;64.48;92019.38;2058542;69;20054;-71
2022/04/06 05:28:40;;;;;;;;;;;;;;;7.71;65.27;92031.19;2058866;69;20054;-71
2022/04/06 05:31:05;;;;;;;;;;;;;;;7.75;64.00;92023.75;2058873;69;20050;-71
2022/04/06 05:33:30;;;;;;;;;;;;;;;7.54;65.20;92024.59;2058807;69;20070;-70
2022/04/06 05:35:56;;;;;;;;;;;;;;;7.37;65.81;92031.28;2058811;69;20054;-71
2022/04/06 05:38:21;;;;;;;;;;;;;;;7.29;65.92;92033.59;2058720;69;20544;-72
2022/04/06 05:40:47;;;;;;;;;;;;;;;7.33;65.80;92035.88;2058863;69;20445;-73
2022/04/06 05:43:13;;;;;;;;;;;;;;;7.51;63.94;92028.59;2058994;69;20042;-71
2022/04/06 05:45:38;;;;;;;;;;;;;;;7.39;65.49;92025.81;2058791;69;20439;-72
2022/04/06 05:48:04;;;;;;;;;;;;;;;6.91;67.06;92034.69;2058796;69;20159;-73
2022/04/06 05:50:30;;;;;;;;;;;;;;;7.07;66.10;92035.00;2058737;69;20058;-69
2022/04/06 05:52:55;;;;;;;;;;;;;;;6.96;66.02;92030.81;2058671;69;20485;-69
2022/04/06 05:55:21;;;;;;;;;;;;;;;6.97;66.01;92029.50;2058836;69;20069;-70
2022/04/06 05:57:46;;;;;;;;;;;;;;;7.06;66.13;92022.34;2058791;69;20484;-69
2022/04/06 06:00:13;;;;;;;;;;;;;;;7.31;65.55;92032.97;2058776;69;20494;-70
2022/04/06 06:02:38;;;;;;;;;;;;;;;7.30;65.88;92035.06;2058726;69;20061;-70
2022/04/06 06:05:04;;;;;;;;;;;;;;;7.29;65.78;92035.66;2058736;69;20050;-70
2022/04/06 06:07:30;;;;;;;;;;;;;;;7.40;65.02;92037.75;2058760;69;20069;-71
2022/04/06 06:09:56;;;;;;;;;;;;;;;7.54;62.81;92041.41;2058656;69;20046;-71
2022/04/06 06:12:22;;;;;;;;;;;;;;;7.53;63.50;92036.41;2058180;69;20074;-71
2022/04/06 06:14:47;;;;;;;;;;;;;;;7.33;64.59;92045.03;2058743;69;20061;-70
2022/04/06 06:17:13;;;;;;;;;;;;;;;7.30;64.45;92045.53;2058920;69;20061;-71
2022/04/06 06:19:38;;;;;;;;;;;;;;;7.38;64.46;92034.81;2058784;69;20054;-70
2022/04/06 06:22:04;;;;;;;;;;;;;;;7.38;64.19;92041.16;2058759;69;20046;-70
2022/04/06 06:24:29;;;;;;;;;;;;;;;7.35;64.70;92036.75;2058577;69;20049;-71
2022/04/06 06:26:55;;;;;;;;;;;;;;;7.34;64.44;92040.19;2058844;69;20046;-70
2022/04/06 06:29:21;;;;;;;;;;;;;;;7.52;61.02;92038.50;2058757;69;20558;-71
2022/04/06 06:31:46;;;;;;;;;;;;;;;7.49;62.80;92034.09;2058836;69;20040;-70
2022/04/06 06:34:12;;;;;;;;;;;;;;;7.40;64.13;92037.75;2058673;69;20054;-70
2022/04/06 06:36:37;;;;;;;;;;;;;;;7.44;64.09;92034.47;2058567;69;20120;-70
2022/04/06 06:39:02;;;;;;;;;;;;;;;7.37;64.37;92024.94;2058589;69;20061;-72
2022/04/06 06:41:29;;;;;;;;;;;;;;;7.47;62.98;92028.38;2058660;69;20050;-70
2022/04/06 06:43:56;;;;;;;;;;;;;;;7.51;63.27;92031.41;2058713;69;20060;-70
2022/04/06 06:46:22;;;;;;;;;;;;;;;7.56;61.83;92023.97;2058604;69;20070;-70
2022/04/06 06:48:48;;;;;;;;;;;;;;;7.35;63.61;92027.63;2058631;69;20046;-71
2022/04/06 06:51:14;;;;;;;;;;;;;;;7.21;64.08;92030.28;2058715;69;20453;-70
2022/04/06 06:53:40;;;;;;;;;;;;;;;7.56;66.03;92029.59;2058480;69;20070;-70
2022/04/06 06:56:06;;;;;;;;;;;;;;;7.82;65.00;92022.78;2058444;69;20467;-69
2022/04/06 06:58:31;;;;;;;;;;;;;;;8.31;61.98;92031.25;2058650;69;20081;-70
2022/04/06 07:00:57;;;;;;;;;;;;;;;8.85;61.98;92029.41;2058509;69;20042;-71
2022/04/06 07:03:22;;;;;;;;;;;;;;;9.30;62.66;92029.06;2058575;69;20108;-72
2022/04/06 07:05:48;;;;;;;;;;;;;;;9.58;62.36;92016.56;2058610;69;20061;-72
2022/04/06 07:08:14;;;;;;;;;;;;;;;9.76;61.99;92019.63;2058556;69;20057;-70
2022/04/06 07:10:43;;;;;;;;;;;;;;;10.11;61.87;92016.50;2058715;69;20057;-71
2022/04/06 07:13:11;;;;;;;;;;;;;;;11.15;59.01;92016.00;2058626;69;20053;-69
2022/04/06 07:15:36;;;;;;;;;;;;;;;10.64;59.90;92005.13;2058622;69;20078;-71
2022/04/06 07:18:03;;;;;;;;;;;;;;;11.41;58.36;92008.09;2058590;69;20100;-70
2022/04/06 07:20:31;;;;;;;;;;;;;;;11.45;57.56;92001.88;2058525;69;20054;-70
2022/04/06 07:22:57;;;;;;;;;;;;;;;12.24;53.55;92010.41;2058338;69;20437;-69
2022/04/06 07:25:22;;;;;;;;;;;;;;;11.77;56.35;92007.56;2058742;69;20061;-70
2022/04/06 07:27:48;;;;;;;;;;;;;;;12.04;55.25;92013.03;2058551;69;20458;-70
2022/04/06 07:30:14;;;;;;;;;;;;;;;12.81;53.22;92012.78;2058614;69;20470;-69
2022/04/06 07:32:40;;;;;;;;;;;;;;;12.81;52.63;92000.78;2058455;69;20094;-69
2022/04/06 07:35:06;;;;;;;;;;;;;;;13.17;50.27;92005.09;2058577;69;20493;-71
2022/04/06 07:37:47;;;;;;;;;;;;;;;13.13;52.63;92007.03;2058571;69;20167;-72
2022/04/06 07:40:13;;;;;;;;;;;;;;;13.29;51.10;92001.31;2058405;69;20124;-71
2022/04/06 07:42:39;;;;;;;;;;;;;;;13.44;51.46;92006.88;2058630;69;20057;-71
2022/04/06 07:45:07;;;;;;;;;;;;;;;13.62;50.79;92001.22;2058539;69;20050;-71
2022/04/06 07:47:32;;;;;;;;;;;;;;;13.28;50.43;91994.94;2058503;69;20116;-70
2022/04/06 07:49:58;;;;;;;;;;;;;;;13.99;51.27;92000.47;2058247;69;20066;-69
2022/04/06 07:52:24;;;;;;;;;;;;;;;13.87;51.10;91994.34;2058549;69;20153;-71
2022/04/06 07:54:49;;;;;;;;;;;;;;;13.98;49.17;91996.19;2057995;69;20056;-71
2022/04/06 07:57:15;;;;;;;;;;;;;;;14.41;50.73;91991.34;2058536;69;20145;-71
2022/04/06 07:59:40;;;;;;;;;;;;;;;14.58;48.58;91979.25;2058540;69;20421;-70
2022/04/06 08:02:06;;;;;;;;;;;;;;;14.72;49.10;91981.84;2058469;69;20050;-70
2022/04/06 08:04:31;;;;;;;;;;;;;;;15.41;48.72;91977.69;2058461;69;20081;-69
2022/04/06 08:06:57;;;;;;;;;;;;;;;15.47;47.44;91980.72;2057939;69;20045;-69
2022/04/06 08:09:23;;;;;;;;;;;;;;;15.90;48.05;91982.06;2058503;69;20042;-73
2022/04/06 08:11:50;;;;;;;;;;;;;;;15.87;47.37;91974.84;2058553;69;20506;-71
2022/04/06 08:14:15;;;;;;;;;;;;;;;16.40;46.23;91968.59;2058457;69;20094;-70
2022/04/06 08:16:41;;;;;;;;;;;;;;;16.06;44.78;91967.59;2058515;69;20112;-69
2022/04/06 08:19:06;;;;;;;;;;;;;;;16.50;45.74;91963.16;2057940;69;20042;-70
2022/04/06 08:21:31;;;;;;;;;;;;;;;16.37;44.88;91960.66;2058350;69;20153;-73
2022/04/06 08:23:57;;;;;;;;;;;;;;;16.09;44.47;91960.59;2058334;69;20054;-70
2022/04/06 08:26:23;;;;;;;;;;;;;;;16.26;44.62;91962.47;2057905;69;20050;-71
2022/04/06 08:28:49;;;;;;;;;;;;;;;14.94;47.36;91954.25;2058380;69;20077;-70
2022/04/06 08:31:15;;;;;;;;;;;;;;;16.58;46.40;91956.97;2058578;69;20089;-68
2022/04/06 08:33:40;;;;;;;;;;;;;;;17.22;45.17;91959.34;2058576;69;20054;-69
2022/04/06 08:36:06;;;;;;;;;;;;;;;17.81;42.94;91960.00;2058529;69;20057;-69
2022/04/06 08:38:32;;;;;;;;;;;;;;;17.55;43.51;91958.00;2057777;69;20066;-67
2022/04/06 08:40:57;;;;;;;;;;;;;;;17.85;42.19;91945.88;2058388;69;20066;-68
2022/04/06 08:43:23;;;;;;;;;;;;;;;18.14;42.02;91950.03;2058387;69;20050;-70
2022/04/06 08:45:50;;;;;;;;;;;;;;;17.57;39.55;91943.81;2058376;69;20490;-69
2022/04/06 08:48:16;;;;;;;;;;;;;;;18.31;41.29;91940.44;2058385;69;20046;-68
2022/04/06 08:50:45;;;;;;;;;;;;;;;17.92;39.58;91944.63;2058364;69;20069;-72
2022/04/06 08:53:11;;;;;;;;;;;;;;;18.20;40.16;91941.66;2058245;69;20159;-73
2022/04/06 08:55:36;;;;;;;;;;;;;;;18.31;40.77;91934.00;2058335;69;20110;-72
2022/04/06 08:58:02;;;;;;;;;;;;;;;18.78;39.84;91939.25;2058371;69;20069;-72
2022/04/06 09:00:28;;;;;;;;;;;;;;;18.59;39.92;91934.56;2058580;69;20042;-72
2022/04/06 09:02:53;;;;;;;;;;;;;;;19.00;39.97;91935.34;2059003;69;20050;-71
2022/04/06 09:05:31;;;;;;;;;;;;;;;20.23;36.82;91935.06;2058915;69;20053;-71
2022/04/06 09:07:57;;;;;;;;;;;;;;;20.23;36.54;91929.38;2058295;69;20046;-69
2022/04/06 09:10:33;;;;;;;;;;;;;;;19.47;36.39;91913.25;2058844;69;20553;-69
2022/04/06 09:13:09;;;;;;;;;;;;;;;19.27;38.05;91919.38;2058915;69;20057;-70
2022/04/06 09:15:35;;;;;;;;;;;;;;;20.32;35.65;91913.75;2058950;69;20169;-70
2022/04/06 09:18:01;;;;;;;;;;;;;;;19.46;36.41;91914.69;2058914;69;20508;-69
2022/04/06 09:20:27;;;;;;;;;;;;;;;19.81;36.15;91907.38;2058851;69;20056;-69
2022/04/06 09:22:52;;;;;;;;;;;;;;;18.88;38.18;91901.63;2058888;69;20046;-69
2022/04/06 09:25:18;;;;;;;;;;;;;;;19.76;36.15;91905.88;2058886;69;20050;-69
2022/04/06 09:27:44;;;;;;;;;;;;;;;20.47;35.78;91895.38;2058838;69;20050;-71
2022/04/06 09:30:10;;;;;;;;;;;;;;;20.20;35.92;91891.47;2058964;69;20435;-70
2022/04/06 09:32:35;;;;;;;;;;;;;;;20.09;35.11;91881.34;2058963;69;20056;-70
2022/04/06 09:35:00;;;;;;;;;;;;;;;20.74;33.56;91878.50;2058887;69;20053;-70
2022/04/06 09:37:30;;;;;;;;;;;;;;;19.42;33.72;91881.09;2058844;69;20066;-70
2022/04/06 09:39:58;;;;;;;;;;;;;;;20.02;36.10;91876.94;2058705;69;20061;-69
2022/04/06 09:42:25;;;;;;;;;;;;;;;21.25;34.09;91867.53;2058806;69;20046;-70
2022/04/06 09:47:38;;;;;;;;;;;;;;;21.26;34.11;91863.25;2058509;69;20049;-70
2022/04/06 09:50:12;;;;;;;;;;;;;;;21.59;34.53;91852.78;2058748;69;20067;-69
2022/04/06 09:52:38;;;;;;;;;;;;;;;20.10;35.47;91842.06;2058796;69;20482;-69
2022/04/06 09:55:08;;;;;;;;;;;;;;;22.33;35.11;91840.28;2058701;69;20062;-70
2022/04/06 09:57:38;;;;;;;;;;;;;;;22.88;34.11;91833.25;2058826;69;20105;-69
2022/04/06 10:00:04;;;;;;;;;;;;;;;21.31;33.83;91833.97;2058722;69;20161;-69
2022/04/06 10:02:32;;;;;;;;;;;;;;;20.09;34.58;91826.34;2058646;69;20536;-68
2022/04/06 10:05:02;;;;;;;;;;;;;;;22.68;34.05;91833.91;2058795;69;20054;-69
2022/04/06 10:07:27;;;;;;;;;;;;;;;23.26;32.50;91821.78;2058631;69;20145;-71
2022/04/06 10:09:54;;;;;;;;;;;;;;;24.03;31.47;91820.97;2058522;69;20137;-71
2022/04/06 10:12:19;;;;;;;;;;;;;;;23.45;31.76;91816.03;2058571;69;20116;-71
2022/04/06 10:14:45;;;;;;;;;;;;;;;23.62;31.91;91803.09;2058828;69;20050;-72
2022/04/06 10:17:12;;;;;;;;;;;;;;;22.81;31.75;91789.47;2058319;69;20050;-75
2022/04/06 10:19:41;;;;;;;;;;;;;;;23.08;31.22;91790.22;2058780;69;20052;-74
2022/04/06 10:22:18;;;;;;;;;;;;;;;22.12;31.44;91766.38;2058749;69;20145;-69
2022/04/06 10:24:51;;;;;;;;;;;;;;;23.26;31.41;91766.53;2058681;69;20117;-69
2022/04/06 10:27:21;;;;;;;;;;;;;;;24.52;28.77;91766.16;2058744;69;20046;-69
2022/04/06 10:30:05;;;;;;;;;;;;;;;24.41;28.62;91753.25;2058592;69;20092;-70
2022/04/06 10:32:38;;;;;;;;;;;;;;;23.86;29.78;91744.16;2058606;69;20161;-69
2022/04/06 10:35:22;;;;;;;;;;;;;;;24.64;27.85;91745.22;2057990;69;20054;-69
2022/04/06 10:37:49;;;;;;;;;;;;;;;24.29;28.57;91736.06;2058153;69;20095;-70
2022/04/06 10:40:14;;;;;;;;;;;;;;;23.15;29.21;91724.94;2058534;69;20058;-68
2022/04/06 10:42:42;;;;;;;;;;;;;;;25.43;27.40;91717.97;2058759;69;20120;-69
2022/04/06 10:45:28;;;;;;;;;;;;;;;26.40;25.99;91723.34;2058283;69;20054;-69
2022/04/06 10:48:12;;;;;;;;;;;;;;;25.65;25.50;91708.34;2058548;69;20403;-69
2022/04/06 10:50:38;;;;;;;;;;;;;;;27.12;25.41;91709.28;2058658;69;20128;-69
2022/04/06 10:53:24;;;;;;;;;;;;;;;27.46;23.85;91702.22;2057998;69;20058;-70
2022/04/06 10:55:56;;;;;;;;;;;;;;;26.42;24.11;91706.00;2058609;69;20089;-67
2022/04/06 10:58:23;;;;;;;;;;;;;;;27.01;23.99;91697.16;2058680;69;20203;-69
2022/04/06 11:01:07;;;;;;;;;;;;;;;28.42;22.80;91699.66;2057937;69;20057;-69
2022/04/06 11:03:34;;;;;;;;;;;;;;;27.73;21.04;91687.31;2054806;69;20454;-69
2022/04/06 11:05:59;;;;;;;;;;;;;;;30.79;18.61;91691.38;2054832;69;20145;-68
2022/04/06 11:11:37;;;;;;;;;;;;;;;33.36;17.78;91683.00;2055177;70;20081;-70
2022/04/06 11:14:03;;;;;;;;;;;;;;;34.29;16.99;91674.69;2055234;69;20174;-69
2022/04/06 11:16:38;;;;;;;;;;;;;;;36.44;15.86;91679.06;2055117;69;20050;-69
2022/04/06 11:19:04;;;;;;;;;;;;;;;34.01;17.22;91667.91;2055419;69;20057;-71
2022/04/06 11:21:31;;;;;;;;;;;;;;;35.11;15.20;91668.78;2055303;69;20059;-72
2022/04/06 11:23:57;;;;;;;;;;;;;;;35.36;15.92;91658.81;2055148;69;20092;-69
2022/04/06 11:26:23;;;;;;;;;;;;;;;38.86;14.65;91662.25;2055336;69;20055;-70
2022/04/06 11:28:59;;;;;;;;;;;;;;;39.70;14.13;91662.81;2055351;69;20112;-69
2022/04/06 11:31:24;;;;;;;;;;;;;;;39.08;12.99;91654.22;2054599;70;20493;-70
2022/04/06 11:33:50;;;;;;;;;;;;;;;39.47;13.56;91648.84;2055063;69;20054;-75
2022/04/06 11:36:16;;;;;;;;;;;;;;;40.86;12.50;91633.56;2055131;70;20042;-77
2022/04/06 11:38:42;;;;;;;;;;;;;;;41.63;12.27;91633.94;2054885;69;20116;-74
2022/04/06 11:41:07;;;;;;;;;;;;;;;41.09;12.66;91623.84;2055121;69;20058;-68
2022/04/06 11:43:36;;;;;;;;;;;;;;;41.94;12.57;91622.81;2055176;69;20054;-69
2022/04/06 11:46:01;;;;;;;;;;;;;;;40.83;12.27;91608.75;2055134;70;20578;-68
2022/04/06 11:48:37;;;;;;;;;;;;;;;41.98;12.05;91604.78;2055135;69;20154;-69
2022/04/06 11:51:03;;;;;;;;;;;;;;;40.46;12.00;91605.41;2055139;69;20054;-68
2022/04/06 11:53:29;;;;;;;;;;;;;;;38.24;12.72;91596.94;2055001;69;20051;-69
2022/04/06 11:55:55;;;;;;;;;;;;;;;37.60;12.19;91590.50;2054639;70;20061;-68
2022/04/06 11:58:48;;;;;;;;;;;;;;;39.96;12.00;91583.75;2055062;69;20043;-72
2022/04/06 12:01:15;;;;;;;;;;;;;;;41.54;10.90;91579.97;2053875;70;20046;-68
2022/04/06 12:03:42;;;;;;;;;;;;;;;39.19;11.71;91568.25;2055064;70;20426;-69
2022/04/06 12:06:09;;;;;;;;;;;;;;;36.99;12.98;91550.69;2055074;69;20387;-67
2022/04/06 12:08:35;;;;;;;;;;;;;;;35.85;13.74;91548.09;2054970;69;20117;-68
2022/04/06 12:11:01;;;;;;;;;;;;;;;33.92;14.60;91538.41;2054235;69;20062;-67
2022/04/06 12:13:31;;;;;;;;;;;;;;;33.92;14.81;91528.94;2055049;69;20050;-68
2022/04/06 12:15:56;;;;;;;;;;;;;;;33.71;14.58;91529.13;2055083;69;20072;-72
2022/04/06 12:18:23;;;;;;;;;;;;;;;28.96;18.18;91509.47;2055162;69;20081;-73
2022/04/06 12:20:49;;;;;;;;;;;;;;;29.26;18.58;91510.09;2054960;69;20622;-70
2022/04/06 12:23:16;;;;;;;;;;;;;;;28.82;19.56;91504.03;2054948;69;20560;-68
2022/04/06 12:25:42;;;;;;;;;;;;;;;29.27;19.83;91500.63;2054890;69;20046;-68
2022/04/06 12:28:18;;;;;;;;;;;;;;;29.13;18.54;91490.13;2054993;69;20053;-69
2022/04/06 12:31:03;;;;;;;;;;;;;;;33.20;17.50;91493.44;2055010;69;20089;-67
2022/04/06 12:33:39;;;;;;;;;;;;;;;33.75;16.18;91493.94;2054477;70;20080;-68
2022/04/06 12:36:08;;;;;;;;;;;;;;;36.62;14.09;91491.19;2055783;69;20042;-70
2022/04/06 12:38:34;;;;;;;;;;;;;;;31.81;16.65;91478.59;2056011;69;20050;-70
2022/04/06 12:41:03;;;;;;;;;;;;;;;32.52;17.68;91475.13;2056122;69;20054;-69
2022/04/06 12:43:29;;;;;;;;;;;;;;;31.24;17.28;91463.22;2056199;70;20042;-72
2022/04/06 12:45:55;;;;;;;;;;;;;;;30.70;18.30;91455.66;2056036;69;20046;-69
2022/04/06 12:48:20;;;;;;;;;;;;;;;29.82;18.26;91451.94;2055469;69;20046;-68
2022/04/06 12:50:46;;;;;;;;;;;;;;;31.67;17.33;91453.66;2055875;69;20097;-68
2022/04/06 12:53:12;;;;;;;;;;;;;;;30.21;18.88;91434.06;2055813;69;20112;-72
2022/04/06 12:55:38;;;;;;;;;;;;;;;30.17;18.09;91430.56;2055345;70;20042;-68
2022/04/06 12:58:16;;;;;;;;;;;;;;;29.56;19.00;91425.19;2055923;69;20050;-68